Dandong, China
Current Conditions -  °F | °C
As of 3:00 AM on Sunday 21 Dec 2014 (Local Time) from ZYTX Reporting Station
Clear Clear  
Wind Chill: -19°   Ceiling: Unl
Heat Index: -8°   Visibility: 4mi
Dew Point: -13°   Wind: 4mph
Humidity: 77%   Direction: 140°SE
Pressure: 30.27"   Gusts: NA
Location:  40.13°N, 124.4°E
Report Text: ZYTX 201900Z 14002MPS 6000 NSC M22/M25 Q1025 NOSIG
Loading
Personal Weather Stations






























Interactive Weather Map New forecast layout! Learn more

10-Day Weather Forecast

Advertisements
Track Severe Weather on mobile